createdAt,value
2023-05-17T00:01:58.399Z,10.10
2023-05-17T00:05:05.380Z,10.20
2023-05-17T00:08:11.414Z,12.78
2023-05-17T00:11:17.613Z,9.33
2023-05-17T00:14:23.614Z,7.05
2023-05-17T00:17:31.162Z,9.13
2023-05-17T00:20:37.462Z,9.53
2023-05-17T00:23:44.756Z,8.10
2023-05-17T00:26:51.919Z,11.88
2023-05-17T00:29:59.834Z,9.43
2023-05-17T00:33:08.457Z,11.30
2023-05-17T00:36:14.698Z,6.00
2023-05-17T00:39:15.444Z,8.78
2023-05-17T00:42:21.422Z,7.53
2023-05-17T00:45:27.817Z,6.15
2023-05-17T00:48:34.965Z,5.55
2023-05-17T00:51:42.361Z,6.28
2023-05-17T00:54:49.060Z,6.30
2023-05-17T00:57:54.692Z,6.33
2023-05-17T01:01:00.744Z,7.22
2023-05-17T01:04:08.134Z,8.18
2023-05-17T01:07:17.063Z,6.55
2023-05-17T01:10:25.692Z,7.08
2023-05-17T01:13:36.558Z,5.17
2023-05-17T01:16:46.805Z,9.73
2023-05-17T01:20:22.962Z,5.95
2023-05-17T01:23:36.094Z,5.85
2023-05-17T01:26:54.354Z,6.95
2023-05-17T01:29:59.267Z,11.75
2023-05-17T01:33:06.412Z,6.55
2023-05-17T01:36:12.745Z,7.20
2023-05-17T01:39:19.728Z,7.95
2023-05-17T01:42:29.660Z,9.95
2023-05-17T01:45:46.546Z,11.12
2023-05-17T01:48:55.803Z,9.85
2023-05-17T01:52:06.172Z,5.72
2023-05-17T01:55:39.484Z,12.47
2023-05-17T01:58:48.214Z,7.92
2023-05-17T02:01:53.808Z,7.42
2023-05-17T02:05:02.121Z,6.33
2023-05-17T02:08:10.799Z,10.60
2023-05-17T02:11:18.187Z,8.18
2023-05-17T02:14:24.572Z,6.47
2023-05-17T02:17:31.305Z,9.83
2023-05-17T02:20:39.049Z,4.20
2023-05-17T02:23:46.522Z,4.22
2023-05-17T02:26:52.802Z,4.80
2023-05-17T02:29:58.965Z,7.50
2023-05-17T02:33:06.328Z,5.97
2023-05-17T02:36:12.735Z,5.40
2023-05-17T02:39:18.689Z,6.95
2023-05-17T02:42:24.666Z,4.72
2023-05-17T02:45:31.934Z,6.65
2023-05-17T02:48:39.444Z,4.37
2023-05-17T02:51:45.706Z,6.55
2023-05-17T02:54:52.693Z,6.17
2023-05-17T02:57:58.944Z,5.30
2023-05-17T03:01:05.184Z,4.33
2023-05-17T03:04:11.345Z,4.78
2023-05-17T03:07:18.597Z,6.33
2023-05-17T03:10:24.301Z,6.87
2023-05-17T03:13:29.669Z,13.18
2023-05-17T03:16:36.445Z,6.22
2023-05-17T03:19:42.545Z,11.53
2023-05-17T03:22:49.694Z,5.62
2023-05-17T03:25:57.077Z,11.25
2023-05-17T03:29:07.557Z,7.40
2023-05-17T03:32:15.796Z,5.47
2023-05-17T03:35:21.764Z,9.73
2023-05-17T03:38:28.907Z,6.33
2023-05-17T03:41:34.343Z,8.83
2023-05-17T03:44:39.560Z,8.98
2023-05-17T03:47:47.124Z,8.08
2023-05-17T03:50:56.164Z,6.17
2023-05-17T03:54:01.979Z,6.65
2023-05-17T03:57:09.353Z,8.08
2023-05-17T04:00:16.765Z,8.43
2023-05-17T04:03:24.560Z,5.72
2023-05-17T04:06:30.778Z,6.25
2023-05-17T04:09:36.902Z,8.78
2023-05-17T04:12:44.383Z,9.25
2023-05-17T04:15:50.884Z,6.35
2023-05-17T04:19:00.171Z,10.60
2023-05-17T04:22:06.066Z,10.88
2023-05-17T04:25:13.129Z,5.42
2023-05-17T04:28:19.917Z,6.30
2023-05-17T04:31:30.067Z,8.98
2023-05-17T04:34:36.327Z,7.08
2023-05-17T04:37:44.762Z,11.48
2023-05-17T04:40:52.340Z,7.60
2023-05-17T04:43:59.027Z,6.37
2023-05-17T04:47:06.424Z,8.00
2023-05-17T04:50:13.165Z,5.87
2023-05-17T04:53:18.950Z,12.47
2023-05-17T04:56:24.393Z,6.95
2023-05-17T04:59:30.099Z,12.70
2023-05-17T05:02:39.216Z,9.18
2023-05-17T05:05:45.959Z,8.98
2023-05-17T05:08:52.819Z,4.85
2023-05-17T05:11:58.307Z,7.00
2023-05-17T05:15:05.704Z,8.93
2023-05-17T05:18:14.167Z,5.67
2023-05-17T05:21:21.472Z,9.70
2023-05-17T05:24:27.842Z,6.78
2023-05-17T05:27:35.778Z,5.30
2023-05-17T05:30:43.706Z,10.35
2023-05-17T05:33:50.568Z,4.12
2023-05-17T05:36:59.624Z,12.55
2023-05-17T05:40:11.184Z,5.90
2023-05-17T05:43:17.716Z,7.08
2023-05-17T05:46:24.716Z,6.72
2023-05-17T05:49:30.439Z,7.65
2023-05-17T05:52:36.317Z,11.55
2023-05-17T05:55:42.555Z,4.70
2023-05-17T05:58:49.820Z,10.10
2023-05-17T06:02:05.902Z,4.37
2023-05-17T06:05:12.244Z,5.33
2023-05-17T06:08:19.606Z,6.03
2023-05-17T06:11:24.854Z,6.35
2023-05-17T06:14:32.069Z,4.78
2023-05-17T06:17:40.334Z,10.53
2023-05-17T06:20:46.377Z,4.80
2023-05-17T06:23:52.530Z,5.15
2023-05-17T06:27:01.031Z,9.28
2023-05-17T06:30:07.652Z,2.33
2023-05-17T06:33:14.164Z,3.67
2023-05-17T06:36:20.845Z,3.30
2023-05-17T06:39:26.722Z,5.15
2023-05-17T06:42:33.144Z,20.02
2023-05-17T06:45:40.331Z,3.35
2023-05-17T06:48:48.006Z,8.95
2023-05-17T06:51:53.392Z,4.62
2023-05-17T06:54:59.409Z,7.28
2023-05-17T06:58:05.234Z,8.83
2023-05-17T07:01:12.905Z,2.87
2023-05-17T07:04:19.691Z,6.62
2023-05-17T07:07:25.276Z,3.22
2023-05-17T07:10:31.056Z,5.45
2023-05-17T07:13:38.125Z,3.87
2023-05-17T07:16:45.559Z,3.17
2023-05-17T07:19:50.833Z,3.75
2023-05-17T07:22:58.302Z,5.15
2023-05-17T07:26:07.122Z,5.80
2023-05-17T07:29:14.307Z,5.60
2023-05-17T07:32:20.564Z,3.95
2023-05-17T07:35:27.037Z,3.17
2023-05-17T07:38:32.864Z,7.22
2023-05-17T07:41:38.662Z,5.25
2023-05-17T07:44:44.142Z,4.10
2023-05-17T07:47:50.619Z,5.70
2023-05-17T07:50:56.946Z,5.55
2023-05-17T07:54:03.043Z,6.50
2023-05-17T07:57:09.398Z,4.30
2023-05-17T08:00:15.876Z,4.10
2023-05-17T08:03:21.449Z,6.28
2023-05-17T08:06:28.233Z,9.28
2023-05-17T08:09:34.093Z,11.65
2023-05-17T08:12:42.242Z,6.83
2023-05-17T08:15:51.575Z,11.70
2023-05-17T08:18:57.569Z,7.92
2023-05-17T08:22:06.601Z,11.48
2023-05-17T08:25:12.890Z,10.15
2023-05-17T08:28:19.782Z,8.35
2023-05-17T08:31:26.252Z,10.15
2023-05-17T08:34:33.367Z,5.03
2023-05-17T08:37:39.555Z,3.58
2023-05-17T08:40:46.607Z,5.92
2023-05-17T08:43:52.321Z,4.12
2023-05-17T08:47:00.245Z,3.17
2023-05-17T08:50:13.315Z,4.95
2023-05-17T08:56:24.126Z,5.70
2023-05-17T08:59:30.352Z,5.58
2023-05-17T09:02:37.507Z,8.33
2023-05-17T09:05:44.309Z,5.05
2023-05-17T09:08:52.076Z,3.60
2023-05-17T09:11:58.170Z,3.50
2023-05-17T09:15:04.710Z,5.25
2023-05-17T09:18:10.649Z,1.87
2023-05-17T09:21:18.935Z,4.90
2023-05-17T09:24:25.444Z,5.97
2023-05-17T09:27:33.204Z,2.08
2023-05-17T09:30:46.469Z,5.55
2023-05-17T09:34:02.335Z,4.33
2023-05-17T09:37:09.618Z,2.22
2023-05-17T09:40:19.032Z,5.37
2023-05-17T09:43:25.830Z,5.83
2023-05-17T09:46:34.822Z,7.15
2023-05-17T09:49:44.689Z,3.00
2023-05-17T09:52:55.044Z,2.97
2023-05-17T09:56:04.492Z,2.85
2023-05-17T09:59:10.530Z,3.08
2023-05-17T10:02:17.063Z,6.37
2023-05-17T10:05:26.648Z,3.70
2023-05-17T10:08:34.832Z,3.92
2023-05-17T10:11:44.604Z,6.10
2023-05-17T10:14:49.504Z,5.78
2023-05-17T10:17:55.406Z,10.03
2023-05-17T10:21:02.896Z,5.22
2023-05-17T10:24:09.505Z,4.12
2023-05-17T10:27:16.766Z,5.97
2023-05-17T10:30:25.300Z,5.62
2023-05-17T10:33:32.005Z,9.30
2023-05-17T10:36:38.947Z,6.25
2023-05-17T10:39:46.500Z,3.60
2023-05-17T10:42:52.667Z,8.75
2023-05-17T10:46:00.299Z,3.47
2023-05-17T10:49:10.109Z,5.95
2023-05-17T10:52:32.593Z,6.67
2023-05-17T10:55:40.765Z,6.87
2023-05-17T10:58:48.255Z,4.10
2023-05-17T11:02:21.873Z,10.00
2023-05-17T11:05:41.864Z,2.12
2023-05-17T11:08:49.517Z,4.58
2023-05-17T11:12:20.124Z,8.45
2023-05-17T11:15:30.234Z,4.47
2023-05-17T11:18:39.849Z,3.65
2023-05-17T11:21:45.722Z,7.45
2023-05-17T11:25:00.804Z,8.18
2023-05-17T11:28:10.140Z,4.90
2023-05-17T11:31:16.354Z,5.15
2023-05-17T11:34:23.984Z,2.85
2023-05-17T11:37:32.139Z,7.22
2023-05-17T11:40:42.260Z,6.65
2023-05-17T11:43:47.898Z,5.85
2023-05-17T11:46:53.332Z,7.22
2023-05-17T11:50:00.043Z,5.17
2023-05-17T11:53:06.991Z,3.08
2023-05-17T11:56:11.808Z,5.00
2023-05-17T11:59:17.919Z,7.10
2023-05-17T12:02:24.382Z,6.28
2023-05-17T12:05:36.343Z,5.15
2023-05-17T12:08:43.122Z,4.05
2023-05-17T12:11:49.882Z,4.85
2023-05-17T12:14:57.702Z,4.17
2023-05-17T12:18:03.396Z,3.10
2023-05-17T12:21:13.306Z,5.67
2023-05-17T12:24:21.402Z,16.02
2023-05-17T12:27:27.351Z,3.72
2023-05-17T12:30:34.124Z,3.52
2023-05-17T12:33:40.264Z,4.78
2023-05-17T12:36:48.017Z,8.00
2023-05-17T12:39:55.079Z,2.90
2023-05-17T12:43:01.510Z,5.40
2023-05-17T12:46:08.228Z,2.65
2023-05-17T12:49:20.636Z,5.22
2023-05-17T12:52:27.334Z,2.92
2023-05-17T12:55:32.878Z,5.78
2023-05-17T12:58:39.244Z,5.40
2023-05-17T13:01:51.992Z,3.15
2023-05-17T13:04:57.886Z,4.97
2023-05-17T13:08:04.862Z,4.70
2023-05-17T13:11:22.621Z,1.95
2023-05-17T13:14:27.129Z,1.62
2023-05-17T13:17:53.442Z,3.58
2023-05-17T13:20:59.848Z,7.35
2023-05-17T13:24:06.094Z,5.25
2023-05-17T13:27:12.962Z,2.33
2023-05-17T13:30:19.960Z,3.22
2023-05-17T13:33:25.891Z,8.10
2023-05-17T13:36:35.846Z,3.22
2023-05-17T13:39:40.650Z,3.98
2023-05-17T13:42:46.992Z,4.85
2023-05-17T13:45:53.139Z,1.90
2023-05-17T13:48:59.885Z,1.62
2023-05-17T13:52:05.207Z,3.45
2023-05-17T13:55:11.378Z,5.30
2023-05-17T13:58:16.535Z,1.80
2023-05-17T14:01:24.248Z,7.50
2023-05-17T14:04:31.408Z,7.72
2023-05-17T14:07:37.828Z,4.00
2023-05-17T14:10:44.189Z,2.85
2023-05-17T14:13:49.886Z,6.50
2023-05-17T14:16:55.569Z,5.50
2023-05-17T14:20:02.549Z,5.55
2023-05-17T14:23:08.384Z,7.28
2023-05-17T14:26:14.919Z,6.10
2023-05-17T14:29:20.031Z,3.47
2023-05-17T14:32:24.834Z,3.52
2023-05-17T14:35:30.968Z,4.42
2023-05-17T14:38:37.162Z,2.87
2023-05-17T14:41:44.749Z,8.88
2023-05-17T14:44:49.307Z,2.50
2023-05-17T14:47:55.937Z,3.20
2023-05-17T14:51:02.446Z,1.82
2023-05-17T14:54:08.416Z,5.85
2023-05-17T14:57:13.278Z,3.95
2023-05-17T15:00:21.350Z,4.65
2023-05-17T15:03:27.351Z,5.30
2023-05-17T15:06:33.427Z,3.25
2023-05-17T15:09:40.742Z,4.70
2023-05-17T15:12:47.165Z,4.40
2023-05-17T15:15:54.895Z,4.40
2023-05-17T15:19:00.801Z,6.72
2023-05-17T15:22:08.969Z,5.00
2023-05-17T15:25:16.022Z,6.15
2023-05-17T15:28:21.983Z,2.90
2023-05-17T15:31:27.343Z,4.03
2023-05-17T15:34:33.391Z,3.47
2023-05-17T15:37:38.734Z,6.83
2023-05-17T15:40:43.900Z,3.02
2023-05-17T15:43:51.631Z,3.20
2023-05-17T15:46:57.276Z,8.18
2023-05-17T15:50:03.618Z,3.42
2023-05-17T15:53:09.567Z,3.92
2023-05-17T15:56:18.277Z,6.20
2023-05-17T15:59:24.655Z,4.42
2023-05-17T16:02:32.856Z,7.05
2023-05-17T16:05:40.135Z,4.03
2023-05-17T16:08:46.152Z,6.08
2023-05-17T16:11:51.734Z,5.42
2023-05-17T16:14:57.811Z,3.10
2023-05-17T16:18:05.117Z,5.58
2023-05-17T16:21:19.733Z,3.05
2023-05-17T16:24:25.668Z,3.65
2023-05-17T16:27:32.266Z,3.72
2023-05-17T16:30:39.927Z,4.15
2023-05-17T16:33:48.542Z,5.95
2023-05-17T16:36:56.031Z,5.15
2023-05-17T16:40:02.114Z,2.65
2023-05-17T16:43:08.109Z,5.33
2023-05-17T16:46:13.125Z,5.78
2023-05-17T16:49:19.825Z,5.80
2023-05-17T16:52:24.688Z,7.35
2023-05-17T16:55:30.899Z,10.80
2023-05-17T16:58:36.658Z,4.30
2023-05-17T17:01:42.895Z,6.40
2023-05-17T17:04:48.008Z,4.92
2023-05-17T17:07:54.590Z,15.60
2023-05-17T17:11:01.154Z,3.72
2023-05-17T17:14:07.657Z,9.50
2023-05-17T17:17:15.099Z,10.43
2023-05-17T17:20:21.977Z,7.47
2023-05-17T17:23:28.301Z,6.35
2023-05-17T17:26:35.254Z,8.10
2023-05-17T17:29:40.892Z,8.33
2023-05-17T17:32:46.958Z,7.50
2023-05-17T17:35:53.591Z,7.72
2023-05-17T17:38:59.515Z,6.28
2023-05-17T17:42:05.802Z,7.65
2023-05-17T17:45:12.017Z,9.83
2023-05-17T17:48:20.632Z,5.87
2023-05-17T17:51:26.315Z,9.58
2023-05-17T17:54:31.882Z,9.53
2023-05-17T17:57:41.216Z,10.43
2023-05-17T18:00:49.396Z,10.65
2023-05-17T18:03:57.246Z,6.90
2023-05-17T18:07:05.293Z,7.00
2023-05-17T18:10:11.638Z,7.70
2023-05-17T18:13:17.759Z,4.45
2023-05-17T18:16:22.371Z,5.87
2023-05-17T18:19:28.161Z,8.85
2023-05-17T18:22:33.166Z,10.05
2023-05-17T18:25:38.262Z,6.28
2023-05-17T18:28:45.090Z,15.28
2023-05-17T18:31:52.485Z,13.40
2023-05-17T18:34:58.385Z,7.60
2023-05-17T18:38:04.749Z,15.20
2023-05-17T18:41:11.706Z,13.00
2023-05-17T18:44:18.566Z,16.00
2023-05-17T18:47:23.436Z,16.73
2023-05-17T18:50:28.911Z,14.95
2023-05-17T18:53:36.337Z,16.85
2023-05-17T18:56:42.128Z,16.95
2023-05-17T18:59:48.236Z,20.27
2023-05-17T19:02:54.897Z,20.37
2023-05-17T19:06:02.362Z,21.45
2023-05-17T19:09:09.121Z,17.82
2023-05-17T19:12:16.083Z,15.38
2023-05-17T19:15:22.855Z,24.98
2023-05-17T19:18:28.926Z,13.40
2023-05-17T19:21:34.367Z,14.53
2023-05-17T19:24:42.220Z,16.42
2023-05-17T19:27:47.223Z,19.85
2023-05-17T19:30:52.896Z,17.98
2023-05-17T19:33:59.588Z,11.22
2023-05-17T19:37:05.430Z,12.00
2023-05-17T19:40:12.853Z,12.78
2023-05-17T19:43:18.103Z,11.85
2023-05-17T19:46:25.232Z,14.38
2023-05-17T19:49:32.307Z,12.85
2023-05-17T19:52:37.970Z,14.87
2023-05-17T19:55:43.633Z,12.88
2023-05-17T19:58:50.699Z,9.15
2023-05-17T20:01:57.093Z,12.63
2023-05-17T20:05:03.214Z,9.68
2023-05-17T20:08:11.790Z,8.35
2023-05-17T20:11:17.166Z,8.90
2023-05-17T20:14:22.881Z,11.43
2023-05-17T20:17:30.738Z,13.60
2023-05-17T20:20:37.306Z,10.72
2023-05-17T20:23:43.210Z,10.45
2023-05-17T20:26:52.030Z,12.23
2023-05-17T20:29:59.526Z,15.48
2023-05-17T20:33:08.555Z,10.82
2023-05-17T20:36:14.207Z,14.47
2023-05-17T20:39:22.838Z,8.50
2023-05-17T20:42:29.534Z,10.98
2023-05-17T20:45:36.514Z,16.27
2023-05-17T20:48:42.697Z,11.50
2023-05-17T20:51:47.903Z,9.58
2023-05-17T20:54:54.618Z,12.30
2023-05-17T20:58:00.739Z,14.23
2023-05-17T21:01:07.952Z,16.80
2023-05-17T21:04:13.851Z,16.87
2023-05-17T21:07:19.555Z,13.00
2023-05-17T21:10:29.938Z,29.65
2023-05-17T21:13:36.981Z,23.67
2023-05-17T21:16:45.015Z,13.78
2023-05-17T21:19:49.867Z,17.45
2023-05-17T21:22:55.831Z,15.58
2023-05-17T21:26:01.224Z,13.80
2023-05-17T21:29:08.310Z,12.80
2023-05-17T21:32:14.797Z,13.75
2023-05-17T21:35:20.573Z,17.98
2023-05-17T21:38:27.419Z,13.62
2023-05-17T21:41:34.514Z,15.00
2023-05-17T21:44:40.293Z,15.30
2023-05-17T21:47:46.428Z,11.15
2023-05-17T21:50:52.606Z,11.80
2023-05-17T21:53:59.070Z,12.03
2023-05-17T21:57:05.871Z,13.00
2023-05-17T22:00:13.172Z,14.53
2023-05-17T22:03:20.079Z,13.25
2023-05-17T22:06:29.436Z,12.70
2023-05-17T22:09:35.609Z,13.25
2023-05-17T22:12:43.501Z,13.28
2023-05-17T22:15:52.172Z,10.35
2023-05-17T22:19:02.619Z,13.43
2023-05-17T22:22:08.632Z,12.90
2023-05-17T22:25:15.896Z,10.85
2023-05-17T22:28:22.936Z,8.05
2023-05-17T22:31:30.520Z,10.78
2023-05-17T22:34:36.687Z,5.92
2023-05-17T22:37:44.394Z,7.03
2023-05-17T22:40:51.466Z,9.38
2023-05-17T22:44:01.386Z,7.62
2023-05-17T22:47:08.450Z,10.93
2023-05-17T22:50:14.927Z,11.80
2023-05-17T22:53:25.054Z,10.58
2023-05-17T22:56:31.092Z,9.88
2023-05-17T22:59:36.336Z,12.25
2023-05-17T23:02:43.175Z,9.15
2023-05-17T23:05:50.041Z,12.65
2023-05-17T23:08:56.266Z,7.95
2023-05-17T23:12:03.286Z,9.48
2023-05-17T23:15:09.001Z,10.48
2023-05-17T23:18:17.037Z,6.70
2023-05-17T23:21:24.523Z,6.83
2023-05-17T23:24:32.948Z,10.75
2023-05-17T23:27:38.875Z,6.50
2023-05-17T23:30:46.336Z,8.05
2023-05-17T23:33:52.356Z,8.63
2023-05-17T23:36:58.926Z,7.67
2023-05-17T23:40:09.285Z,12.37
2023-05-17T23:43:17.576Z,8.68
2023-05-17T23:46:25.947Z,7.03
2023-05-17T23:49:32.702Z,8.08
2023-05-17T23:52:39.319Z,9.33
2023-05-17T23:55:45.910Z,14.03
2023-05-17T23:58:52.636Z,10.58
